Ben-my-chree — MXLG6 — position and weather

sailwx.info

Track history (hours):
 
Tides and Currents Weather Stations Pressure Air Temp Water Temp Dewpoint Dewpoint Depression Visibility Wind Speed Wind Dir Waves Ship Positions

Ben-my-chree

Operator: The Isle of Man Steam Packet Co Ltd

Last reported at 2020-Sep-30 22:30 UTC. Time now 2020-Oct-01 07:32 UTC.
Position N 54°02' W 002°55'.

Length 125 m; draft 5.3 m.

Type: Ship. MMSI: 234983000.

Date/timePositionNaut miles runAvg speedWind from/ knotsBaromVisibWave heightAir tempDewpointWater temp
2020-Sep-30 22:30N 54°02' W 002°55'4 4.4
2020-Sep-30 21:31N 53°59' W 003°00'4 0.5
2020-Sep-30 12:57N 54°02' W 002°55'21 7.2
2020-Sep-30 10:01N 53°56' W 003°29'0 0.0
2020-Sep-30 02:06N 53°56' W 003°30'22 8.2
2020-Sep-29 23:29N 54°02' W 002°55'21 2.2
2020-Sep-29 14:08N 53°56' W 003°28'318.8
2020-Sep-29 14:00N 53°56' W 003°24'1818.1
2020-Sep-29 13:00N 54°02' W 002°55'0 0.1
2020-Sep-29 11:30N 54°02' W 002°55'1510.1
2020-Sep-29 10:00N 53°56' W 003°18'38 6.5
2020-Sep-29 04:06N 54°08' W 004°20'5013.9
2020-Sep-29 00:30N 54°02' W 002°55'0 0.0
2020-Sep-28 22:00N 54°02' W 002°55'3114.7
2020-Sep-28 19:53N 53°60' W 003°48'18 3.1
2020-Sep-28 13:59N 53°56' W 003°18'15 5.7
2020-Sep-28 11:23N 54°02' W 002°55'3 7.4
2020-Sep-28 11:00N 54°00' W 002°59'917.1
2020-Sep-28 10:30N 53°56' W 003°11'4 0.5
2020-Sep-28 01:30N 53°58' W 003°04'714.2
2020-Sep-28 01:01N 54°02' W 002°55'7 2.2
2020-Sep-27 22:00N 53°58' W 003°03'10 1.3
2020-Sep-27 14:00N 53°56' W 003°20'1616.3
2020-Sep-27 13:00N 54°02' W 002°55'19 6.4
2020-Sep-27 10:00N 53°56' W 003°26'19 1.8
2020-Sep-26 22:59N 54°02' W 002°55'0 0.1
2020-Sep-26 22:01N 54°02' W 002°55'8 0.7
2020-Sep-26 11:00N 53°57' W 003°06'45 7.7
2020-Sep-26 05:08N 54°08' W 004°21'5110.9
2020-Sep-26 00:28N 54°02' W 002°55'0 0.0
2020-Sep-25 23:28N 54°02' W 002°55'29 9.5
2020-Sep-25 20:28N 53°59' W 003°43'11 1.8
2020-Sep-25 14:30N 53°56' W 003°26'815.8
2020-Sep-25 14:01N 53°55' W 003°13'816.5
2020-Sep-25 13:31N 53°59' W 003°00'4 0.3
2020-Sep-25 00:09N 54°02' W 002°55'14 1.4
2020-Sep-24 14:00N 53°56' W 003°16'8 0.7
2020-Sep-24 02:52N 53°56' W 003°29'616.9
2020-Sep-24 02:30N 53°56' W 003°19'815.9
2020-Sep-24 02:00N 53°57' W 003°06'16 3.5
2020-Sep-23 21:30N 53°57' W 003°33'10 1.4
2020-Sep-23 14:00N 53°56' W 003°16'14 6.5
2020-Sep-23 11:53N 54°02' W 002°55'1 1.5
2020-Sep-23 11:00N 54°01' W 002°57'917.1
2020-Sep-23 10:30N 53°56' W 003°08'3 0.3
2020-Sep-23 02:00N 53°55' W 003°13'12 4.1
2020-Sep-22 23:01N 54°02' W 002°55'51 7.8
2020-Sep-22 16:27N 54°08' W 004°22'5211.6
2020-Sep-22 12:01N 54°02' W 002°55'1 1.2
2020-Sep-22 11:00N 54°02' W 002°57'1818.2
2020-Sep-22 10:00N 53°55' W 003°26'917.9
2020-Sep-22 09:29N 53°59' W 003°41'7 1.0
2020-Sep-22 03:10N 54°01' W 003°52'33 7.8
2020-Sep-21 22:55N 54°02' W 002°55'6 6.2
2020-Sep-21 22:00N 53°58' W 003°02'815.3
2020-Sep-21 21:30N 53°55' W 003°14'1616.0
2020-Sep-21 20:30N 53°57' W 003°41'30 9.6
2020-Sep-21 17:22N 54°09' W 004°28'1910.5
2020-Sep-21 15:35N 54°02' W 003°58'2817.6
2020-Sep-21 14:00N 53°56' W 003°12'6 1.7
2020-Sep-21 10:30N 53°58' W 003°03'3718.4
2020-Sep-21 08:30N 54°04' W 004°05'1412.3
2020-Sep-21 07:20N 54°09' W 004°28'0 0.0
2020-Sep-21 05:29N 54°09' W 004°28'5112.8
2020-Sep-21 01:30N 53°58' W 003°04'7 5.6
2020-Sep-21 00:15N 54°02' W 002°55'0 0.0
2020-Sep-20 23:27N 54°02' W 002°55'  
Track history (hours):
 
Tides and Currents Weather Stations Pressure Air Temp Water Temp Dewpoint Dewpoint Depression Visibility Wind Speed Wind Dir Waves Ship Positions

Ben-my-chree

Operator: The Isle of Man Steam Packet Co Ltd

Last reported at 2020-Sep-30 22:30 UTC. Time now 2020-Oct-01 07:32 UTC.
Position N 54°02' W 002°55'.

Length 125 m; draft 5.3 m.

Type: Ship. MMSI: 234983000.

Date/timePositionNaut miles runAvg speedWind from/ knotsBaromVisibWave heightAir tempDewpointWater temp
2020-Sep-30 22:30N 54°02' W 002°55'4 4.4
2020-Sep-30 21:31N 53°59' W 003°00'4 0.5
2020-Sep-30 12:57N 54°02' W 002°55'21 7.2
2020-Sep-30 10:01N 53°56' W 003°29'0 0.0
2020-Sep-30 02:06N 53°56' W 003°30'22 8.2
2020-Sep-29 23:29N 54°02' W 002°55'21 2.2
2020-Sep-29 14:08N 53°56' W 003°28'318.8
2020-Sep-29 14:00N 53°56' W 003°24'1818.1
2020-Sep-29 13:00N 54°02' W 002°55'0 0.1
2020-Sep-29 11:30N 54°02' W 002°55'1510.1
2020-Sep-29 10:00N 53°56' W 003°18'38 6.5
2020-Sep-29 04:06N 54°08' W 004°20'5013.9
2020-Sep-29 00:30N 54°02' W 002°55'0 0.0
2020-Sep-28 22:00N 54°02' W 002°55'3114.7
2020-Sep-28 19:53N 53°60' W 003°48'18 3.1
2020-Sep-28 13:59N 53°56' W 003°18'15 5.7
2020-Sep-28 11:23N 54°02' W 002°55'3 7.4
2020-Sep-28 11:00N 54°00' W 002°59'917.1
2020-Sep-28 10:30N 53°56' W 003°11'4 0.5
2020-Sep-28 01:30N 53°58' W 003°04'714.2
2020-Sep-28 01:01N 54°02' W 002°55'7 2.2
2020-Sep-27 22:00N 53°58' W 003°03'10 1.3
2020-Sep-27 14:00N 53°56' W 003°20'1616.3
2020-Sep-27 13:00N 54°02' W 002°55'19 6.4
2020-Sep-27 10:00N 53°56' W 003°26'19 1.8
2020-Sep-26 22:59N 54°02' W 002°55'0 0.1
2020-Sep-26 22:01N 54°02' W 002°55'8 0.7
2020-Sep-26 11:00N 53°57' W 003°06'45 7.7
2020-Sep-26 05:08N 54°08' W 004°21'5110.9
2020-Sep-26 00:28N 54°02' W 002°55'0 0.0
2020-Sep-25 23:28N 54°02' W 002°55'29 9.5
2020-Sep-25 20:28N 53°59' W 003°43'11 1.8
2020-Sep-25 14:30N 53°56' W 003°26'815.8
2020-Sep-25 14:01N 53°55' W 003°13'816.5
2020-Sep-25 13:31N 53°59' W 003°00'4 0.3
2020-Sep-25 00:09N 54°02' W 002°55'14 1.4
2020-Sep-24 14:00N 53°56' W 003°16'8 0.7
2020-Sep-24 02:52N 53°56' W 003°29'616.9
2020-Sep-24 02:30N 53°56' W 003°19'815.9
2020-Sep-24 02:00N 53°57' W 003°06'16 3.5
2020-Sep-23 21:30N 53°57' W 003°33'10 1.4
2020-Sep-23 14:00N 53°56' W 003°16'14 6.5
2020-Sep-23 11:53N 54°02' W 002°55'1 1.5
2020-Sep-23 11:00N 54°01' W 002°57'917.1
2020-Sep-23 10:30N 53°56' W 003°08'3 0.3
2020-Sep-23 02:00N 53°55' W 003°13'12 4.1
2020-Sep-22 23:01N 54°02' W 002°55'51 7.8
2020-Sep-22 16:27N 54°08' W 004°22'5211.6
2020-Sep-22 12:01N 54°02' W 002°55'1 1.2
2020-Sep-22 11:00N 54°02' W 002°57'1818.2
2020-Sep-22 10:00N 53°55' W 003°26'917.9
2020-Sep-22 09:29N 53°59' W 003°41'7 1.0
2020-Sep-22 03:10N 54°01' W 003°52'33 7.8
2020-Sep-21 22:55N 54°02' W 002°55'6 6.2
2020-Sep-21 22:00N 53°58' W 003°02'815.3
2020-Sep-21 21:30N 53°55' W 003°14'1616.0
2020-Sep-21 20:30N 53°57' W 003°41'30 9.6
2020-Sep-21 17:22N 54°09' W 004°28'1910.5
2020-Sep-21 15:35N 54°02' W 003°58'2817.6
2020-Sep-21 14:00N 53°56' W 003°12'6 1.7
2020-Sep-21 10:30N 53°58' W 003°03'3718.4
2020-Sep-21 08:30N 54°04' W 004°05'1412.3
2020-Sep-21 07:20N 54°09' W 004°28'0 0.0
2020-Sep-21 05:29N 54°09' W 004°28'5112.8
2020-Sep-21 01:30N 53°58' W 003°04'7 5.6
2020-Sep-21 00:15N 54°02' W 002°55'0 0.0
2020-Sep-20 23:27N 54°02' W 002°55'  

Dump ship's entire track history